sensor_id;sensor_type;location;lat;lon;timestamp;pressure;altitude;pressure_sealevel;temperature;humidity
62928;BME280;51070;52.236;-0.892;2023-04-15T00:00:10;100135.27;;;7.46;96.37
62928;BME280;51070;52.236;-0.892;2023-04-15T00:02:36;100134.73;;;7.44;96.15
62928;BME280;51070;52.236;-0.892;2023-04-15T00:05:02;100137.01;;;7.41;95.76
62928;BME280;51070;52.236;-0.892;2023-04-15T00:07:27;100134.31;;;7.38;95.78
62928;BME280;51070;52.236;-0.892;2023-04-15T00:09:54;100137.12;;;7.35;95.50
62928;BME280;51070;52.236;-0.892;2023-04-15T00:12:23;100139.30;;;7.33;95.79
62928;BME280;51070;52.236;-0.892;2023-04-15T00:14:48;100136.15;;;7.32;95.70
62928;BME280;51070;52.236;-0.892;2023-04-15T00:17:15;100141.06;;;7.30;95.61
62928;BME280;51070;52.236;-0.892;2023-04-15T00:19:41;100138.56;;;7.27;95.79
62928;BME280;51070;52.236;-0.892;2023-04-15T00:22:06;100137.46;;;7.25;95.96
62928;BME280;51070;52.236;-0.892;2023-04-15T00:24:32;100136.23;;;7.25;96.17
62928;BME280;51070;52.236;-0.892;2023-04-15T00:26:58;100139.17;;;7.25;96.28
62928;BME280;51070;52.236;-0.892;2023-04-15T00:29:24;100140.20;;;7.25;96.27
62928;BME280;51070;52.236;-0.892;2023-04-15T00:31:50;100142.75;;;7.24;96.22
62928;BME280;51070;52.236;-0.892;2023-04-15T00:34:16;100145.83;;;7.23;96.28
62928;BME280;51070;52.236;-0.892;2023-04-15T00:36:42;100149.43;;;7.23;96.28
62928;BME280;51070;52.236;-0.892;2023-04-15T00:39:07;100152.97;;;7.21;96.39
62928;BME280;51070;52.236;-0.892;2023-04-15T00:41:33;100156.61;;;7.22;96.74
62928;BME280;51070;52.236;-0.892;2023-04-15T00:43:59;100157.92;;;7.25;96.89
62928;BME280;51070;52.236;-0.892;2023-04-15T00:46:26;100162.12;;;7.27;96.62
62928;BME280;51070;52.236;-0.892;2023-04-15T00:48:53;100162.05;;;7.26;96.45
62928;BME280;51070;52.236;-0.892;2023-04-15T00:51:19;100163.46;;;7.26;96.53
62928;BME280;51070;52.236;-0.892;2023-04-15T00:53:44;100161.55;;;7.26;96.56
62928;BME280;51070;52.236;-0.892;2023-04-15T00:56:10;100165.86;;;7.26;96.49
62928;BME280;51070;52.236;-0.892;2023-04-15T00:58:36;100166.31;;;7.25;96.52
62928;BME280;51070;52.236;-0.892;2023-04-15T01:01:02;100165.60;;;7.24;96.59
62928;BME280;51070;52.236;-0.892;2023-04-15T01:03:28;100167.28;;;7.23;96.81
62928;BME280;51070;52.236;-0.892;2023-04-15T01:05:54;100170.64;;;7.21;96.76
62928;BME280;51070;52.236;-0.892;2023-04-15T01:08:28;100174.87;;;7.19;96.88
62928;BME280;51070;52.236;-0.892;2023-04-15T01:10:55;100178.58;;;7.16;96.94
62928;BME280;51070;52.236;-0.892;2023-04-15T01:13:23;100182.46;;;7.15;97.11
62928;BME280;51070;52.236;-0.892;2023-04-15T01:15:49;100185.02;;;7.14;97.26
62928;BME280;51070;52.236;-0.892;2023-04-15T01:18:16;100190.21;;;7.15;97.22
62928;BME280;51070;52.236;-0.892;2023-04-15T01:20:42;100194.86;;;7.15;97.37
62928;BME280;51070;52.236;-0.892;2023-04-15T01:23:07;100200.35;;;7.15;97.52
62928;BME280;51070;52.236;-0.892;2023-04-15T01:25:34;100204.52;;;7.16;97.43
62928;BME280;51070;52.236;-0.892;2023-04-15T01:28:00;100212.80;;;7.18;97.61
62928;BME280;51070;52.236;-0.892;2023-04-15T01:30:25;100221.09;;;7.19;97.47
62928;BME280;51070;52.236;-0.892;2023-04-15T01:32:52;100220.77;;;7.20;97.49
62928;BME280;51070;52.236;-0.892;2023-04-15T01:35:18;100227.71;;;7.21;97.60
62928;BME280;51070;52.236;-0.892;2023-04-15T01:37:44;100232.09;;;7.23;97.62
62928;BME280;51070;52.236;-0.892;2023-04-15T01:40:10;100237.12;;;7.25;97.62
62928;BME280;51070;52.236;-0.892;2023-04-15T01:42:35;100243.96;;;7.28;97.61
62928;BME280;51070;52.236;-0.892;2023-04-15T01:45:02;100245.02;;;7.29;97.57
62928;BME280;51070;52.236;-0.892;2023-04-15T01:47:28;100248.41;;;7.32;97.80
62928;BME280;51070;52.236;-0.892;2023-04-15T01:49:53;100250.02;;;7.34;97.69
62928;BME280;51070;52.236;-0.892;2023-04-15T01:52:19;100255.09;;;7.36;97.77
62928;BME280;51070;52.236;-0.892;2023-04-15T01:54:44;100255.63;;;7.37;97.59
62928;BME280;51070;52.236;-0.892;2023-04-15T01:57:10;100251.44;;;7.35;97.21
62928;BME280;51070;52.236;-0.892;2023-04-15T01:59:36;100251.23;;;7.35;97.32
62928;BME280;51070;52.236;-0.892;2023-04-15T02:02:01;100254.33;;;7.34;97.35
62928;BME280;51070;52.236;-0.892;2023-04-15T02:04:27;100258.08;;;7.33;97.31
62928;BME280;51070;52.236;-0.892;2023-04-15T02:06:52;100263.73;;;7.32;97.32
62928;BME280;51070;52.236;-0.892;2023-04-15T02:09:18;100270.42;;;7.32;97.39
62928;BME280;51070;52.236;-0.892;2023-04-15T02:11:44;100277.27;;;7.32;97.35
62928;BME280;51070;52.236;-0.892;2023-04-15T02:14:09;100278.13;;;7.32;97.73
62928;BME280;51070;52.236;-0.892;2023-04-15T02:16:35;100280.66;;;7.31;97.61
62928;BME280;51070;52.236;-0.892;2023-04-15T02:19:00;100281.02;;;7.31;98.02
62928;BME280;51070;52.236;-0.892;2023-04-15T02:21:26;100287.10;;;7.32;98.04
62928;BME280;51070;52.236;-0.892;2023-04-15T02:23:51;100287.30;;;7.33;97.91
62928;BME280;51070;52.236;-0.892;2023-04-15T02:26:18;100293.17;;;7.34;98.13
62928;BME280;51070;52.236;-0.892;2023-04-15T02:28:45;100291.33;;;7.35;98.47
62928;BME280;51070;52.236;-0.892;2023-04-15T02:31:10;100292.23;;;7.37;98.34
62928;BME280;51070;52.236;-0.892;2023-04-15T02:33:36;100290.19;;;7.37;98.18
62928;BME280;51070;52.236;-0.892;2023-04-15T02:36:02;100296.56;;;7.37;98.31
62928;BME280;51070;52.236;-0.892;2023-04-15T02:38:28;100297.81;;;7.38;98.32
62928;BME280;51070;52.236;-0.892;2023-04-15T02:40:53;100298.46;;;7.37;98.16
62928;BME280;51070;52.236;-0.892;2023-04-15T02:43:18;100302.23;;;7.37;98.21
62928;BME280;51070;52.236;-0.892;2023-04-15T02:45:45;100305.02;;;7.38;98.33
62928;BME280;51070;52.236;-0.892;2023-04-15T02:48:11;100308.14;;;7.39;98.09
62928;BME280;51070;52.236;-0.892;2023-04-15T02:50:37;100309.95;;;7.37;97.79
62928;BME280;51070;52.236;-0.892;2023-04-15T02:53:05;100314.98;;;7.33;97.82
62928;BME280;51070;52.236;-0.892;2023-04-15T02:55:31;100318.41;;;7.29;97.77
62928;BME280;51070;52.236;-0.892;2023-04-15T02:57:56;100326.57;;;7.26;97.82
62928;BME280;51070;52.236;-0.892;2023-04-15T03:00:25;100330.80;;;7.25;97.94
62928;BME280;51070;52.236;-0.892;2023-04-15T03:02:57;100335.54;;;7.23;97.82
62928;BME280;51070;52.236;-0.892;2023-04-15T03:05:22;100339.41;;;7.21;97.83
62928;BME280;51070;52.236;-0.892;2023-04-15T03:07:51;100343.31;;;7.20;97.95
62928;BME280;51070;52.236;-0.892;2023-04-15T03:10:17;100346.39;;;7.19;97.74
62928;BME280;51070;52.236;-0.892;2023-04-15T03:12:43;100350.30;;;7.18;97.77
62928;BME280;51070;52.236;-0.892;2023-04-15T03:15:09;100353.26;;;7.19;97.90
62928;BME280;51070;52.236;-0.892;2023-04-15T03:17:34;100354.31;;;7.20;97.81
62928;BME280;51070;52.236;-0.892;2023-04-15T03:20:01;100361.59;;;7.21;98.05
62928;BME280;51070;52.236;-0.892;2023-04-15T03:22:28;100366.94;;;7.22;97.54
62928;BME280;51070;52.236;-0.892;2023-04-15T03:24:53;100367.91;;;7.20;97.61
62928;BME280;51070;52.236;-0.892;2023-04-15T03:27:19;100375.56;;;7.18;97.30
62928;BME280;51070;52.236;-0.892;2023-04-15T03:29:44;100380.98;;;7.16;97.34
62928;BME280;51070;52.236;-0.892;2023-04-15T03:32:10;100383.70;;;7.15;97.65
62928;BME280;51070;52.236;-0.892;2023-04-15T03:34:36;100385.99;;;7.16;97.89
62928;BME280;51070;52.236;-0.892;2023-04-15T03:37:01;100387.91;;;7.17;97.80
62928;BME280;51070;52.236;-0.892;2023-04-15T03:39:26;100391.23;;;7.14;97.67
62928;BME280;51070;52.236;-0.892;2023-04-15T03:41:52;100393.73;;;7.12;97.77
62928;BME280;51070;52.236;-0.892;2023-04-15T03:44:17;100400.97;;;7.13;98.14
62928;BME280;51070;52.236;-0.892;2023-04-15T03:46:43;100401.52;;;7.14;98.20
62928;BME280;51070;52.236;-0.892;2023-04-15T03:49:09;100405.20;;;7.15;98.18
62928;BME280;51070;52.236;-0.892;2023-04-15T03:51:35;100409.36;;;7.16;98.16
62928;BME280;51070;52.236;-0.892;2023-04-15T03:54:01;100413.18;;;7.18;98.14
62928;BME280;51070;52.236;-0.892;2023-04-15T03:56:26;100414.88;;;7.17;97.87
62928;BME280;51070;52.236;-0.892;2023-04-15T03:58:51;100418.84;;;7.17;98.19
62928;BME280;51070;52.236;-0.892;2023-04-15T04:01:17;100419.95;;;7.19;98.38
62928;BME280;51070;52.236;-0.892;2023-04-15T04:03:43;100422.06;;;7.21;98.20
62928;BME280;51070;52.236;-0.892;2023-04-15T04:06:09;100426.09;;;7.22;98.26
62928;BME280;51070;52.236;-0.892;2023-04-15T04:08:36;100427.79;;;7.22;98.11
62928;BME280;51070;52.236;-0.892;2023-04-15T04:11:02;100429.75;;;7.19;97.95
62928;BME280;51070;52.236;-0.892;2023-04-15T04:13:27;100435.09;;;7.20;98.64
62928;BME280;51070;52.236;-0.892;2023-04-15T04:15:53;100440.48;;;7.22;98.43
62928;BME280;51070;52.236;-0.892;2023-04-15T04:18:18;100444.77;;;7.21;98.43
62928;BME280;51070;52.236;-0.892;2023-04-15T04:20:44;100448.10;;;7.19;98.57
62928;BME280;51070;52.236;-0.892;2023-04-15T04:23:09;100452.55;;;7.18;98.57
62928;BME280;51070;52.236;-0.892;2023-04-15T04:25:35;100456.50;;;7.18;98.84
62928;BME280;51070;52.236;-0.892;2023-04-15T04:28:00;100459.79;;;7.18;98.73
62928;BME280;51070;52.236;-0.892;2023-04-15T04:30:26;100465.08;;;7.18;99.02
62928;BME280;51070;52.236;-0.892;2023-04-15T04:32:51;100466.46;;;7.18;98.96
62928;BME280;51070;52.236;-0.892;2023-04-15T04:35:16;100470.13;;;7.19;99.26
62928;BME280;51070;52.236;-0.892;2023-04-15T04:37:42;100474.48;;;7.21;98.99
62928;BME280;51070;52.236;-0.892;2023-04-15T04:40:08;100476.36;;;7.20;99.15
62928;BME280;51070;52.236;-0.892;2023-04-15T04:42:34;100473.92;;;7.19;99.02
62928;BME280;51070;52.236;-0.892;2023-04-15T04:44:59;100482.64;;;7.18;98.81
62928;BME280;51070;52.236;-0.892;2023-04-15T04:47:25;100485.77;;;7.15;98.95
62928;BME280;51070;52.236;-0.892;2023-04-15T04:49:50;100494.05;;;7.16;99.15
62928;BME280;51070;52.236;-0.892;2023-04-15T04:52:16;100499.93;;;7.16;99.01
62928;BME280;51070;52.236;-0.892;2023-04-15T04:54:41;100506.41;;;7.15;98.74
62928;BME280;51070;52.236;-0.892;2023-04-15T04:57:06;100512.74;;;7.15;98.85
62928;BME280;51070;52.236;-0.892;2023-04-15T04:59:32;100515.36;;;7.16;99.05
62928;BME280;51070;52.236;-0.892;2023-04-15T05:01:58;100522.25;;;7.16;98.97
62928;BME280;51070;52.236;-0.892;2023-04-15T05:04:23;100523.61;;;7.16;98.79
62928;BME280;51070;52.236;-0.892;2023-04-15T05:06:48;100530.04;;;7.18;98.78
62928;BME280;51070;52.236;-0.892;2023-04-15T05:09:14;100534.22;;;7.19;98.98
62928;BME280;51070;52.236;-0.892;2023-04-15T05:11:39;100535.98;;;7.20;98.64
62928;BME280;51070;52.236;-0.892;2023-04-15T05:14:05;100544.00;;;7.19;98.64
62928;BME280;51070;52.236;-0.892;2023-04-15T05:16:31;100551.52;;;7.17;98.80
62928;BME280;51070;52.236;-0.892;2023-04-15T05:18:56;100564.45;;;7.18;98.96
62928;BME280;51070;52.236;-0.892;2023-04-15T05:21:22;100570.83;;;7.19;98.74
62928;BME280;51070;52.236;-0.892;2023-04-15T05:23:47;100577.89;;;7.20;98.55
62928;BME280;51070;52.236;-0.892;2023-04-15T05:26:13;100587.52;;;7.20;98.42
62928;BME280;51070;52.236;-0.892;2023-04-15T05:28:38;100592.10;;;7.18;98.47
62928;BME280;51070;52.236;-0.892;2023-04-15T05:31:04;100593.85;;;7.19;98.71
62928;BME280;51070;52.236;-0.892;2023-04-15T05:33:30;100594.98;;;7.21;98.71
62928;BME280;51070;52.236;-0.892;2023-04-15T05:35:55;100601.21;;;7.22;98.39
62928;BME280;51070;52.236;-0.892;2023-04-15T05:38:21;100604.40;;;7.20;98.33
62928;BME280;51070;52.236;-0.892;2023-04-15T05:40:46;100608.33;;;7.20;98.31
62928;BME280;51070;52.236;-0.892;2023-04-15T05:43:11;100613.71;;;7.21;98.45
62928;BME280;51070;52.236;-0.892;2023-04-15T05:45:37;100617.55;;;7.22;98.36
62928;BME280;51070;52.236;-0.892;2023-04-15T05:48:02;100620.33;;;7.23;98.30
62928;BME280;51070;52.236;-0.892;2023-04-15T05:50:28;100624.52;;;7.24;98.33
62928;BME280;51070;52.236;-0.892;2023-04-15T05:52:54;100630.67;;;7.27;98.50
62928;BME280;51070;52.236;-0.892;2023-04-15T05:55:20;100631.17;;;7.31;98.48
62928;BME280;51070;52.236;-0.892;2023-04-15T05:57:46;100638.29;;;7.32;98.28
62928;BME280;51070;52.236;-0.892;2023-04-15T06:00:12;100643.84;;;7.33;98.07
62928;BME280;51070;52.236;-0.892;2023-04-15T06:02:38;100647.15;;;7.35;98.13
62928;BME280;51070;52.236;-0.892;2023-04-15T06:05:04;100651.61;;;7.35;97.63
62928;BME280;51070;52.236;-0.892;2023-04-15T06:07:35;100658.39;;;7.36;98.07
62928;BME280;51070;52.236;-0.892;2023-04-15T06:10:02;100663.78;;;7.37;98.05
62928;BME280;51070;52.236;-0.892;2023-04-15T06:12:28;100672.52;;;7.40;98.17
62928;BME280;51070;52.236;-0.892;2023-04-15T06:14:53;100678.98;;;7.43;98.00
62928;BME280;51070;52.236;-0.892;2023-04-15T06:17:19;100688.52;;;7.45;97.99
62928;BME280;51070;52.236;-0.892;2023-04-15T06:19:44;100696.98;;;7.45;98.09
62928;BME280;51070;52.236;-0.892;2023-04-15T06:22:10;100699.09;;;7.47;97.83
62928;BME280;51070;52.236;-0.892;2023-04-15T06:24:35;100703.39;;;7.47;97.66
62928;BME280;51070;52.236;-0.892;2023-04-15T06:27:01;100708.66;;;7.49;97.79
62928;BME280;51070;52.236;-0.892;2023-04-15T06:29:27;100710.23;;;7.49;97.80
62928;BME280;51070;52.236;-0.892;2023-04-15T06:31:53;100712.16;;;7.51;97.86
62928;BME280;51070;52.236;-0.892;2023-04-15T06:34:21;100716.41;;;7.53;97.91
62928;BME280;51070;52.236;-0.892;2023-04-15T06:36:46;100718.86;;;7.54;97.70
62928;BME280;51070;52.236;-0.892;2023-04-15T06:39:12;100723.09;;;7.57;97.89
62928;BME280;51070;52.236;-0.892;2023-04-15T06:41:38;100726.64;;;7.59;97.79
62928;BME280;51070;52.236;-0.892;2023-04-15T06:44:03;100728.27;;;7.61;97.39
62928;BME280;51070;52.236;-0.892;2023-04-15T06:46:29;100734.86;;;7.63;97.40
62928;BME280;51070;52.236;-0.892;2023-04-15T06:48:54;100738.27;;;7.65;97.48
62928;BME280;51070;52.236;-0.892;2023-04-15T06:51:21;100737.47;;;7.71;97.57
62928;BME280;51070;52.236;-0.892;2023-04-15T06:53:48;100738.10;;;7.77;97.02
62928;BME280;51070;52.236;-0.892;2023-04-15T06:56:13;100741.34;;;7.80;96.77
62928;BME280;51070;52.236;-0.892;2023-04-15T06:58:39;100741.89;;;7.85;96.74
62928;BME280;51070;52.236;-0.892;2023-04-15T07:01:04;100745.34;;;7.93;96.49
62928;BME280;51070;52.236;-0.892;2023-04-15T07:03:30;100753.75;;;8.01;96.62
62928;BME280;51070;52.236;-0.892;2023-04-15T07:05:56;100762.82;;;8.08;96.11
62928;BME280;51070;52.236;-0.892;2023-04-15T07:08:23;100773.70;;;8.13;95.97
62928;BME280;51070;52.236;-0.892;2023-04-15T07:10:48;100776.60;;;8.20;95.93
62928;BME280;51070;52.236;-0.892;2023-04-15T07:13:14;100780.45;;;8.25;95.46
62928;BME280;51070;52.236;-0.892;2023-04-15T07:15:39;100787.38;;;8.30;95.28
62928;BME280;51070;52.236;-0.892;2023-04-15T07:18:05;100792.52;;;8.33;95.09
62928;BME280;51070;52.236;-0.892;2023-04-15T07:20:30;100795.61;;;8.33;94.41
62928;BME280;51070;52.236;-0.892;2023-04-15T07:22:56;100798.33;;;8.32;94.40
62928;BME280;51070;52.236;-0.892;2023-04-15T07:25:21;100802.08;;;8.31;94.13
62928;BME280;51070;52.236;-0.892;2023-04-15T07:27:47;100801.71;;;8.31;93.77
62928;BME280;51070;52.236;-0.892;2023-04-15T07:30:13;100805.14;;;8.30;93.71
62928;BME280;51070;52.236;-0.892;2023-04-15T07:32:38;100805.77;;;8.33;93.41
62928;BME280;51070;52.236;-0.892;2023-04-15T07:35:04;100811.25;;;8.36;93.32
62928;BME280;51070;52.236;-0.892;2023-04-15T07:37:30;100819.66;;;8.40;93.30
62928;BME280;51070;52.236;-0.892;2023-04-15T07:39:55;100822.83;;;8.45;92.86
62928;BME280;51070;52.236;-0.892;2023-04-15T07:42:21;100832.52;;;8.51;92.77
62928;BME280;51070;52.236;-0.892;2023-04-15T07:44:47;100839.39;;;8.58;92.53
62928;BME280;51070;52.236;-0.892;2023-04-15T07:47:12;100845.20;;;8.61;92.05
62928;BME280;51070;52.236;-0.892;2023-04-15T07:49:37;100849.17;;;8.66;92.20
62928;BME280;51070;52.236;-0.892;2023-04-15T07:52:03;100853.15;;;8.74;92.13
62928;BME280;51070;52.236;-0.892;2023-04-15T07:54:29;100857.79;;;8.82;92.13
62928;BME280;51070;52.236;-0.892;2023-04-15T07:56:54;100863.66;;;8.87;91.24
62928;BME280;51070;52.236;-0.892;2023-04-15T07:59:20;100868.48;;;8.91;91.38
62928;BME280;51070;52.236;-0.892;2023-04-15T08:01:47;100874.32;;;8.98;91.36
62928;BME280;51070;52.236;-0.892;2023-04-15T08:04:13;100877.42;;;9.03;90.83
62928;BME280;51070;52.236;-0.892;2023-04-15T08:06:38;100878.61;;;9.06;90.73
62928;BME280;51070;52.236;-0.892;2023-04-15T08:09:05;100883.05;;;9.09;90.41
62928;BME280;51070;52.236;-0.892;2023-04-15T08:11:31;100887.79;;;9.11;89.69
62928;BME280;51070;52.236;-0.892;2023-04-15T08:13:57;100887.92;;;9.15;89.50
62928;BME280;51070;52.236;-0.892;2023-04-15T08:16:24;100892.89;;;9.18;88.95
62928;BME280;51070;52.236;-0.892;2023-04-15T08:18:51;100893.31;;;9.21;88.85
62928;BME280;51070;52.236;-0.892;2023-04-15T08:21:18;100898.72;;;9.26;88.96
62928;BME280;51070;52.236;-0.892;2023-04-15T08:23:46;100903.31;;;9.29;88.65
62928;BME280;51070;52.236;-0.892;2023-04-15T08:26:11;100908.58;;;9.31;88.43
62928;BME280;51070;52.236;-0.892;2023-04-15T08:28:39;100909.33;;;9.33;88.05
62928;BME280;51070;52.236;-0.892;2023-04-15T08:31:05;100911.88;;;9.36;88.17
62928;BME280;51070;52.236;-0.892;2023-04-15T08:33:30;100915.31;;;9.40;87.99
62928;BME280;51070;52.236;-0.892;2023-04-15T08:35:56;100919.07;;;9.43;87.90
62928;BME280;51070;52.236;-0.892;2023-04-15T08:38:22;100922.71;;;9.48;87.95
62928;BME280;51070;52.236;-0.892;2023-04-15T08:40:48;100929.57;;;9.52;87.41
62928;BME280;51070;52.236;-0.892;2023-04-15T08:43:22;100933.07;;;9.52;87.15
62928;BME280;51070;52.236;-0.892;2023-04-15T08:45:51;100939.46;;;9.57;87.35
62928;BME280;51070;52.236;-0.892;2023-04-15T08:48:17;100946.42;;;9.63;87.28
62928;BME280;51070;52.236;-0.892;2023-04-15T08:50:44;100952.96;;;9.67;87.03
62928;BME280;51070;52.236;-0.892;2023-04-15T08:53:10;100954.27;;;9.74;86.94
62928;BME280;51070;52.236;-0.892;2023-04-15T08:55:42;100957.30;;;9.81;87.05
62928;BME280;51070;52.236;-0.892;2023-04-15T08:58:09;100965.58;;;9.89;86.96
62928;BME280;51070;52.236;-0.892;2023-04-15T09:00:35;100966.13;;;9.95;86.24
62928;BME280;51070;52.236;-0.892;2023-04-15T09:03:01;100971.05;;;10.01;85.58
62928;BME280;51070;52.236;-0.892;2023-04-15T09:05:26;100969.77;;;10.13;85.12
62928;BME280;51070;52.236;-0.892;2023-04-15T09:07:52;100971.25;;;10.29;85.23
62928;BME280;51070;52.236;-0.892;2023-04-15T09:10:17;100979.65;;;10.36;84.92
62928;BME280;51070;52.236;-0.892;2023-04-15T09:12:43;100984.86;;;10.46;84.69
62928;BME280;51070;52.236;-0.892;2023-04-15T09:15:11;100983.16;;;10.51;83.37
62928;BME280;51070;52.236;-0.892;2023-04-15T09:17:42;100991.17;;;10.48;83.66
62928;BME280;51070;52.236;-0.892;2023-04-15T09:20:09;100993.47;;;10.64;83.46
62928;BME280;51070;52.236;-0.892;2023-04-15T09:22:35;100993.29;;;10.93;82.56
62928;BME280;51070;52.236;-0.892;2023-04-15T09:25:02;100999.83;;;11.43;81.76
62928;BME280;51070;52.236;-0.892;2023-04-15T09:27:28;101004.79;;;11.83;78.78
62928;BME280;51070;52.236;-0.892;2023-04-15T09:29:53;101007.22;;;12.11;78.05
62928;BME280;51070;52.236;-0.892;2023-04-15T09:32:20;101011.02;;;12.28;77.31
62928;BME280;51070;52.236;-0.892;2023-04-15T09:34:47;101011.34;;;12.26;76.36
62928;BME280;51070;52.236;-0.892;2023-04-15T09:37:13;101016.85;;;12.20;77.00
62928;BME280;51070;52.236;-0.892;2023-04-15T09:39:46;101018.08;;;12.26;76.90
62928;BME280;51070;52.236;-0.892;2023-04-15T09:42:12;101025.64;;;12.36;76.49
62928;BME280;51070;52.236;-0.892;2023-04-15T09:44:38;101029.79;;;12.41;76.44
62928;BME280;51070;52.236;-0.892;2023-04-15T09:47:03;101032.02;;;12.58;76.38
62928;BME280;51070;52.236;-0.892;2023-04-15T09:49:28;101033.73;;;12.93;74.05
62928;BME280;51070;52.236;-0.892;2023-04-15T09:51:59;101036.85;;;13.12;73.55
62928;BME280;51070;52.236;-0.892;2023-04-15T09:54:33;101038.77;;;13.38;72.70
62928;BME280;51070;52.236;-0.892;2023-04-15T09:57:09;101048.00;;;13.67;71.58
62928;BME280;51070;52.236;-0.892;2023-04-15T09:59:35;101054.55;;;13.72;70.90
62928;BME280;51070;52.236;-0.892;2023-04-15T10:02:03;101055.98;;;13.66;69.97
62928;BME280;51070;52.236;-0.892;2023-04-15T10:04:28;101055.32;;;13.68;70.06
62928;BME280;51070;52.236;-0.892;2023-04-15T10:06:55;101052.08;;;13.70;69.89
62928;BME280;51070;52.236;-0.892;2023-04-15T10:09:21;101051.39;;;13.99;69.64
62928;BME280;51070;52.236;-0.892;2023-04-15T10:11:48;101056.66;;;14.46;68.14
62928;BME280;51070;52.236;-0.892;2023-04-15T10:14:14;101052.75;;;14.93;67.02
62928;BME280;51070;52.236;-0.892;2023-04-15T10:16:44;101052.33;;;15.16;65.22
62928;BME280;51070;52.236;-0.892;2023-04-15T10:19:14;101060.27;;;15.58;63.99
62928;BME280;51070;52.236;-0.892;2023-04-15T10:21:42;101057.77;;;15.75;63.11
62928;BME280;51070;52.236;-0.892;2023-04-15T10:24:09;101066.52;;;15.88;62.05
62928;BME280;51070;52.236;-0.892;2023-04-15T10:26:36;101070.20;;;15.90;61.78
62928;BME280;51070;52.236;-0.892;2023-04-15T10:29:02;101074.14;;;16.07;61.80
62928;BME280;51070;52.236;-0.892;2023-04-15T10:31:28;101080.84;;;16.12;60.38
62928;BME280;51070;52.236;-0.892;2023-04-15T10:33:54;101084.41;;;15.95;60.15
62928;BME280;51070;52.236;-0.892;2023-04-15T10:36:20;101091.13;;;15.69;60.56
62928;BME280;51070;52.236;-0.892;2023-04-15T10:38:46;101095.75;;;15.37;61.46
62928;BME280;51070;52.236;-0.892;2023-04-15T10:43:38;101109.52;;;14.61;62.68
62928;BME280;51070;52.236;-0.892;2023-04-15T10:46:05;101109.30;;;14.37;63.99
62928;BME280;51070;52.236;-0.892;2023-04-15T10:48:31;101111.98;;;14.11;64.15
62928;BME280;51070;52.236;-0.892;2023-04-15T10:50:59;101109.91;;;13.76;64.33
62928;BME280;51070;52.236;-0.892;2023-04-15T10:53:29;101114.23;;;13.49;65.32
62928;BME280;51070;52.236;-0.892;2023-04-15T10:55:58;101117.48;;;13.28;65.84
62928;BME280;51070;52.236;-0.892;2023-04-15T10:58:24;101120.13;;;13.06;66.51
62928;BME280;51070;52.236;-0.892;2023-04-15T11:00:51;101123.82;;;13.02;67.20
62928;BME280;51070;52.236;-0.892;2023-04-15T11:03:36;101125.64;;;13.11;67.37
62928;BME280;51070;52.236;-0.892;2023-04-15T11:06:03;101127.30;;;13.13;67.39
62928;BME280;51070;52.236;-0.892;2023-04-15T11:08:57;101130.58;;;13.07;67.14
62928;BME280;51070;52.236;-0.892;2023-04-15T11:14:26;101137.60;;;12.98;68.15
62928;BME280;51070;52.236;-0.892;2023-04-15T11:16:52;101140.10;;;13.01;68.21
62928;BME280;51070;52.236;-0.892;2023-04-15T11:19:17;101147.79;;;13.02;68.31
62928;BME280;51070;52.236;-0.892;2023-04-15T11:21:43;101146.21;;;12.96;68.11
62928;BME280;51070;52.236;-0.892;2023-04-15T11:24:09;101146.84;;;12.88;68.52
62928;BME280;51070;52.236;-0.892;2023-04-15T11:26:34;101150.36;;;12.84;68.42
62928;BME280;51070;52.236;-0.892;2023-04-15T11:28:59;101152.13;;;12.85;68.39
62928;BME280;51070;52.236;-0.892;2023-04-15T11:31:26;101154.14;;;12.83;68.31
62928;BME280;51070;52.236;-0.892;2023-04-15T11:33:57;101160.17;;;12.76;68.32
62928;BME280;51070;52.236;-0.892;2023-04-15T11:36:28;101159.55;;;12.67;68.96
62928;BME280;51070;52.236;-0.892;2023-04-15T11:38:56;101165.84;;;12.57;69.62
62928;BME280;51070;52.236;-0.892;2023-04-15T11:41:22;101173.27;;;12.46;69.99
62928;BME280;51070;52.236;-0.892;2023-04-15T11:43:49;101178.31;;;12.35;70.34
62928;BME280;51070;52.236;-0.892;2023-04-15T11:46:14;101180.88;;;12.24;70.36
62928;BME280;51070;52.236;-0.892;2023-04-15T11:48:45;101186.42;;;12.18;70.18
62928;BME280;51070;52.236;-0.892;2023-04-15T11:51:11;101188.61;;;12.21;70.10
62928;BME280;51070;52.236;-0.892;2023-04-15T11:53:43;101189.79;;;12.36;70.06
62928;BME280;51070;52.236;-0.892;2023-04-15T11:56:24;101192.42;;;12.65;70.01
62928;BME280;51070;52.236;-0.892;2023-04-15T11:58:55;101198.66;;;13.04;68.89
62928;BME280;51070;52.236;-0.892;2023-04-15T12:01:36;101195.98;;;13.36;68.28
62928;BME280;51070;52.236;-0.892;2023-04-15T12:04:14;101194.77;;;13.74;66.88
62928;BME280;51070;52.236;-0.892;2023-04-15T12:06:41;101197.52;;;14.13;65.45
62928;BME280;51070;52.236;-0.892;2023-04-15T12:09:12;101201.11;;;14.44;64.74
62928;BME280;51070;52.236;-0.892;2023-04-15T12:16:46;101197.46;;;15.55;62.67
62928;BME280;51070;52.236;-0.892;2023-04-15T12:19:27;101196.17;;;15.96;61.12
62928;BME280;51070;52.236;-0.892;2023-04-15T12:21:58;101202.16;;;16.31;60.07
62928;BME280;51070;52.236;-0.892;2023-04-15T12:24:24;101203.65;;;16.36;58.87
62928;BME280;51070;52.236;-0.892;2023-04-15T12:26:52;101206.36;;;16.32;58.97
62928;BME280;51070;52.236;-0.892;2023-04-15T12:29:19;101208.80;;;16.22;59.26
62928;BME280;51070;52.236;-0.892;2023-04-15T12:31:55;101206.92;;;16.13;59.44
62928;BME280;51070;52.236;-0.892;2023-04-15T12:34:30;101209.15;;;16.02;58.99
62928;BME280;51070;52.236;-0.892;2023-04-15T12:36:57;101212.55;;;15.87;58.27
62928;BME280;51070;52.236;-0.892;2023-04-15T12:39:25;101213.11;;;15.79;58.35
62928;BME280;51070;52.236;-0.892;2023-04-15T12:41:52;101213.59;;;15.77;58.80
62928;BME280;51070;52.236;-0.892;2023-04-15T12:44:17;101213.98;;;15.80;59.02
62928;BME280;51070;52.236;-0.892;2023-04-15T12:46:44;101216.46;;;15.73;58.46
62928;BME280;51070;52.236;-0.892;2023-04-15T12:49:10;101221.30;;;15.62;58.09
62928;BME280;51070;52.236;-0.892;2023-04-15T12:51:36;101222.24;;;15.49;58.53
62928;BME280;51070;52.236;-0.892;2023-04-15T12:54:01;101223.44;;;15.48;58.43